sensor_id;sensor_type;location;lat;lon;timestamp;temperature;humidity
55365;DHT22;41245;45.384;20.390;2023-07-13T21:06:20;563.70;2099.20
55365;DHT22;41245;45.384;20.390;2023-07-13T21:08:47;563.50;2099.20
55365;DHT22;41245;45.384;20.390;2023-07-13T21:11:13;563.40;2099.20
55365;DHT22;41245;45.384;20.390;2023-07-13T21:13:39;563.40;2099.20
55365;DHT22;41245;45.384;20.390;2023-07-13T21:18:46;563.70;2099.20
55365;DHT22;41245;45.384;20.390;2023-07-13T21:21:16;564.00;2099.20
55365;DHT22;41245;45.384;20.390;2023-07-13T22:25:17;589.70;128.00
55365;DHT22;41245;45.384;20.390;2023-07-13T22:27:43;589.50;128.00
55365;DHT22;41245;45.384;20.390;2023-07-13T22:30:13;589.60;128.00
55365;DHT22;41245;45.384;20.390;2023-07-13T22:32:39;589.60;128.00
55365;DHT22;41245;45.384;20.390;2023-07-13T22:35:07;589.70;486.40
55365;DHT22;41245;45.384;20.390;2023-07-13T22:37:36;589.70;128.00
55365;DHT22;41245;45.384;20.390;2023-07-13T22:40:03;589.60;179.20
55365;DHT22;41245;45.384;20.390;2023-07-13T22:42:32;589.50;128.00
55365;DHT22;41245;45.384;20.390;2023-07-13T22:44:58;589.40;128.00
55365;DHT22;41245;45.384;20.390;2023-07-13T22:47:24;589.40;128.00
55365;DHT22;41245;45.384;20.390;2023-07-13T22:49:49;589.50;128.00
55365;DHT22;41245;45.384;20.390;2023-07-13T22:52:15;589.70;128.00
55365;DHT22;41245;45.384;20.390;2023-07-13T22:54:41;589.70;128.00
55365;DHT22;41245;45.384;20.390;2023-07-13T22:57:07;614.40;128.00
55365;DHT22;41245;45.384;20.390;2023-07-13T22:59:35;614.40;128.00
55365;DHT22;41245;45.384;20.390;2023-07-13T23:02:04;589.70;128.00
55365;DHT22;41245;45.384;20.390;2023-07-13T23:04:32;589.60;128.00
55365;DHT22;41245;45.384;20.390;2023-07-13T23:06:59;564.00;128.00
55365;DHT22;41245;45.384;20.390;2023-07-13T23:11:53;537.80;128.00
55365;DHT22;41245;45.384;20.390;2023-07-13T23:14:20;512.90;128.00
55365;DHT22;41245;45.384;20.390;2023-07-13T23:16:46;512.60;128.00
55365;DHT22;41245;45.384;20.390;2023-07-13T23:19:35;512.60;128.00
55365;DHT22;41245;45.384;20.390;2023-07-13T23:22:02;512.30;128.00
55365;DHT22;41245;45.384;20.390;2023-07-13T23:24:32;512.20;128.00
55365;DHT22;41245;45.384;20.390;2023-07-13T23:27:01;512.10;2380.80
55365;DHT22;41245;45.384;20.390;2023-07-13T23:29:27;512.00;128.00
55365;DHT22;41245;45.384;20.390;2023-07-13T23:31:52;512.00;128.00
55365;DHT22;41245;45.384;20.390;2023-07-13T23:34:18;512.00;128.00
55365;DHT22;41245;45.384;20.390;2023-07-13T23:36:44;487.30;128.00
55365;DHT22;41245;45.384;20.390;2023-07-13T23:39:17;487.30;2380.80
55365;DHT22;41245;45.384;20.390;2023-07-13T23:41:43;512.00;2380.80
55365;DHT22;41245;45.384;20.390;2023-07-13T23:46:45;512.10;2048.00
55365;DHT22;41245;45.384;20.390;2023-07-13T23:49:23;512.10;2022.40
55365;DHT22;41245;45.384;20.390;2023-07-13T23:51:52;512.00;1996.80
55365;DHT22;41245;45.384;20.390;2023-07-13T23:54:21;512.10;1996.80
55365;DHT22;41245;45.384;20.390;2023-07-13T23:56:47;512.10;1996.80
55365;DHT22;41245;45.384;20.390;2023-07-13T23:59:14;512.30;2022.40
